Time;durP1;ratioP1;P1;durP2;ratioP2;P2;SDS_P1;SDS_P2;PMS_P1;PMS_P2;Temp;Humidity;BMP_temperature;BMP_pressure;BME280_temperature;BME280_humidity;BME280_pressure;Samples;Min_cycle;Max_cycle;Signal;HPM_P1;HPM_P2
2023/03/19 00:01:57;;;;;;;69.55;35.15;;;9.30;99.90;;;;;;5052883;28;20048;-88
2023/03/19 00:04:24;;;;;;;60.85;34.45;;;9.20;99.90;;;;;;5049902;28;20071;-89
2023/03/19 00:06:51;;;;;;;61.40;34.50;;;9.10;99.90;;;;;;5055450;28;20123;-86
2023/03/19 00:09:20;;;;;;;60.65;34.10;;;9.10;99.90;;;;;;5043579;28;20048;-88
2023/03/19 00:11:46;;;;;;;63.42;33.97;;;9.00;99.90;;;;;;5034206;28;20605;-89
2023/03/19 00:14:22;;;;;;;61.65;34.45;;;9.10;99.90;;;;;;5051883;28;20051;-89
2023/03/19 00:16:48;;;;;;;66.43;34.63;;;9.10;99.90;;;;;;5048273;28;20047;-89
2023/03/19 00:19:17;;;;;;;64.95;35.28;;;9.20;99.90;;;;;;5047980;28;20045;-89
2023/03/19 00:21:43;;;;;;;56.83;33.45;;;9.10;99.90;;;;;;5052741;28;20052;-90
2023/03/19 00:24:11;;;;;;;59.67;33.22;;;9.20;99.90;;;;;;5051834;28;20052;-92
2023/03/19 00:26:41;;;;;;;68.15;34.97;;;9.20;99.90;;;;;;5068065;28;20393;-93
2023/03/19 00:29:15;;;;;;;59.35;33.58;;;9.20;99.90;;;;;;5047657;28;21522;-91
2023/03/19 00:31:41;;;;;;;60.72;33.33;;;9.20;99.90;;;;;;5059925;28;20114;-92
2023/03/19 00:34:08;;;;;;;57.25;32.78;;;9.20;99.90;;;;;;5057405;28;20552;-91
2023/03/19 00:36:40;;;;;;;60.65;31.38;;;9.30;99.90;;;;;;5047207;28;20049;-90
2023/03/19 00:39:07;;;;;;;59.50;33.25;;;9.30;99.90;;;;;;5049211;28;20049;-92
2023/03/19 00:41:33;;;;;;;62.72;32.08;;;9.30;99.90;;;;;;5079525;28;20127;-92
2023/03/19 00:44:05;;;;;;;52.45;29.65;;;9.30;99.90;;;;;;5044290;28;20043;-93
2023/03/19 00:46:36;;;;;;;57.70;31.08;;;9.30;99.90;;;;;;5057667;28;20048;-92
2023/03/19 00:49:09;;;;;;;50.50;29.40;;;9.40;99.90;;;;;;5054572;28;20044;-93
2023/03/19 00:51:55;;;;;;;59.13;32.00;;;9.40;99.90;;;;;;5070351;28;20071;-94
2023/03/19 00:54:26;;;;;;;64.53;31.77;;;9.40;99.90;;;;;;5073287;28;20059;-93
2023/03/19 00:57:00;;;;;;;53.08;29.25;;;9.40;99.90;;;;;;5056669;28;20056;-93
2023/03/19 00:59:33;;;;;;;62.30;30.00;;;9.40;99.90;;;;;;5046485;28;20051;-91
2023/03/19 01:01:59;;;;;;;49.10;27.65;;;9.50;99.90;;;;;;5074114;28;20489;-92
2023/03/19 01:04:33;;;;;;;54.47;28.05;;;9.40;99.90;;;;;;5078829;28;20032;-91
2023/03/19 01:07:03;;;;;;;42.13;27.02;;;9.50;99.90;;;;;;5047451;28;20079;-92
2023/03/19 01:09:32;;;;;;;45.58;28.38;;;9.50;99.90;;;;;;5073905;28;20130;-91
2023/03/19 01:12:32;;;;;;;43.45;27.00;;;9.50;99.90;;;;;;5075591;28;20044;-92
2023/03/19 01:15:07;;;;;;;45.28;25.15;;;9.60;99.90;;;;;;5077998;28;20098;-92
2023/03/19 01:17:36;;;;;;;40.03;24.25;;;9.60;99.90;;;;;;5079856;28;20093;-91
2023/03/19 01:20:11;;;;;;;42.17;25.65;;;9.60;99.90;;;;;;5077857;28;20067;-92
2023/03/19 01:22:46;;;;;;;40.85;25.58;;;9.60;99.90;;;;;;5072982;28;20044;-92
2023/03/19 01:25:36;;;;;;;40.55;24.35;;;9.60;99.90;;;;;;5054723;28;20047;-92
2023/03/19 01:28:10;;;;;;;37.58;23.92;;;9.60;99.90;;;;;;5093870;28;20052;-93
2023/03/19 01:30:39;;;;;;;39.13;24.30;;;9.60;99.90;;;;;;5074092;28;20047;-93
2023/03/19 01:33:08;;;;;;;42.35;24.10;;;9.60;99.90;;;;;;5076361;28;20040;-92
2023/03/19 01:35:38;;;;;;;37.80;25.00;;;9.60;99.90;;;;;;5071046;28;20052;-92
2023/03/19 01:38:04;;;;;;;36.30;22.98;;;9.60;99.90;;;;;;5076310;28;20401;-88
2023/03/19 01:40:31;;;;;;;38.08;22.55;;;9.70;99.90;;;;;;5060781;28;20090;-87
2023/03/19 01:43:17;;;;;;;34.53;20.52;;;9.70;99.90;;;;;;5062241;28;20081;-89
2023/03/19 01:45:44;;;;;;;30.10;19.50;;;9.70;99.90;;;;;;5078578;28;20044;-89
2023/03/19 01:48:35;;;;;;;32.67;19.90;;;9.70;99.90;;;;;;5059586;28;20302;-90
2023/03/19 01:51:04;;;;;;;30.65;19.42;;;9.70;99.90;;;;;;5057957;28;20085;-91
2023/03/19 01:53:34;;;;;;;31.77;19.90;;;9.60;99.90;;;;;;5077155;28;20044;-91
2023/03/19 01:56:09;;;;;;;33.05;20.63;;;9.60;99.90;;;;;;5072878;28;20397;-91
2023/03/19 01:58:42;;;;;;;36.47;20.00;;;9.70;99.90;;;;;;5069308;28;20046;-91
2023/03/19 02:01:09;;;;;;;33.10;20.63;;;9.70;99.90;;;;;;5069251;28;20048;-90
2023/03/19 02:03:45;;;;;;;33.90;20.35;;;9.60;99.90;;;;;;5055127;28;20177;-87
2023/03/19 02:06:22;;;;;;;36.08;21.00;;;9.60;99.90;;;;;;5060478;28;20053;-89
2023/03/19 02:08:51;;;;;;;39.05;20.65;;;9.60;99.90;;;;;;5057887;28;20477;-88
2023/03/19 02:11:18;;;;;;;37.17;20.20;;;9.60;99.90;;;;;;5056806;28;20047;-89
2023/03/19 02:13:49;;;;;;;37.33;19.55;;;9.60;99.90;;;;;;5074612;28;20048;-89
2023/03/19 02:16:15;;;;;;;34.40;19.40;;;9.60;99.90;;;;;;5062793;28;20076;-90
2023/03/19 02:18:41;;;;;;;35.83;19.75;;;9.60;99.90;;;;;;5092587;28;20051;-91
2023/03/19 02:21:19;;;;;;;36.22;20.90;;;9.60;99.90;;;;;;5058467;28;20052;-91
2023/03/19 02:24:10;;;;;;;40.67;20.30;;;9.50;99.90;;;;;;5061504;28;20123;-91
2023/03/19 02:26:42;;;;;;;38.80;21.95;;;9.50;99.90;;;;;;5072209;28;20060;-91
2023/03/19 02:29:10;;;;;;;41.72;21.88;;;9.50;99.90;;;;;;5060571;28;20040;-90
2023/03/19 02:31:36;;;;;;;38.92;20.95;;;9.50;99.90;;;;;;5059095;28;20058;-91
2023/03/19 02:34:27;;;;;;;38.95;22.05;;;9.50;99.90;;;;;;5055421;28;20048;-90
2023/03/19 02:37:32;;;;;;;39.78;22.02;;;9.40;99.90;;;;;;5067597;28;20044;-92
2023/03/19 02:40:11;;;;;;;39.20;20.98;;;9.40;99.90;;;;;;5062272;28;20056;-91
2023/03/19 02:42:39;;;;;;;43.63;22.17;;;9.30;99.90;;;;;;5082140;28;20440;-92
2023/03/19 02:45:08;;;;;;;36.88;22.00;;;9.30;99.90;;;;;;5073548;28;20397;-91
2023/03/19 02:47:36;;;;;;;34.13;21.58;;;9.30;99.90;;;;;;5072094;28;20052;-91
2023/03/19 02:50:09;;;;;;;41.53;23.45;;;9.20;99.90;;;;;;5058656;28;20048;-90
2023/03/19 02:52:36;;;;;;;43.95;23.08;;;9.30;99.90;;;;;;5075912;28;20044;-91
2023/03/19 02:55:05;;;;;;;38.65;21.88;;;9.30;99.90;;;;;;5078294;28;20047;-93
2023/03/19 02:57:31;;;;;;;41.08;22.25;;;9.30;99.90;;;;;;5053549;28;20051;-91
2023/03/19 02:59:56;;;;;;;39.58;23.13;;;9.30;99.90;;;;;;5053588;28;20141;-91
2023/03/19 03:02:22;;;;;;;36.83;22.42;;;9.30;99.90;;;;;;5060447;28;20055;-91
2023/03/19 03:04:51;;;;;;;43.88;23.08;;;9.30;99.90;;;;;;5064746;28;20559;-90
2023/03/19 03:07:21;;;;;;;37.28;22.50;;;9.30;99.90;;;;;;5052111;28;20032;-92
2023/03/19 03:09:52;;;;;;;42.53;22.92;;;9.30;99.90;;;;;;5059037;28;20048;-90
2023/03/19 03:12:17;;;;;;;44.22;23.92;;;9.30;99.90;;;;;;5050947;28;20044;-91
2023/03/19 03:14:48;;;;;;;47.90;24.55;;;9.30;99.90;;;;;;5055634;28;20098;-91
2023/03/19 03:17:20;;;;;;;39.97;23.77;;;9.40;99.90;;;;;;5062841;28;20045;-92
2023/03/19 03:19:49;;;;;;;42.47;24.05;;;9.40;99.90;;;;;;5064675;28;20040;-92
2023/03/19 03:22:19;;;;;;;42.17;24.63;;;9.30;99.90;;;;;;5064953;28;20044;-92
2023/03/19 03:24:46;;;;;;;49.03;25.38;;;9.30;99.90;;;;;;5032871;28;20040;-91
2023/03/19 03:27:15;;;;;;;48.78;25.83;;;9.20;99.90;;;;;;5079536;28;20095;-91
2023/03/19 03:29:47;;;;;;;48.47;25.80;;;9.20;99.90;;;;;;5043241;28;20048;-91
2023/03/19 03:32:16;;;;;;;47.92;25.80;;;9.20;99.90;;;;;;5068171;28;20058;-90
2023/03/19 03:34:50;;;;;;;47.42;26.58;;;9.20;99.90;;;;;;5049487;28;20052;-90
2023/03/19 03:37:17;;;;;;;48.05;26.90;;;9.10;99.90;;;;;;5076259;28;20123;-91
2023/03/19 03:39:52;;;;;;;47.90;25.63;;;9.10;99.90;;;;;;5055507;28;20048;-91
2023/03/19 03:42:20;;;;;;;45.67;24.77;;;9.10;99.90;;;;;;5068742;28;20079;-91
2023/03/19 03:44:53;;;;;;;43.10;25.13;;;9.00;99.90;;;;;;5075624;28;20098;-91
2023/03/19 03:47:18;;;;;;;49.78;25.95;;;9.10;99.90;;;;;;5057150;28;20044;-91
2023/03/19 03:49:47;;;;;;;45.40;24.10;;;9.00;99.90;;;;;;5056541;28;20051;-88
2023/03/19 03:52:15;;;;;;;39.78;22.60;;;8.90;99.90;;;;;;5053851;28;20040;-92
2023/03/19 03:54:48;;;;;;;43.42;24.02;;;9.00;99.90;;;;;;5075143;28;20485;-91
2023/03/19 03:57:14;;;;;;;42.63;23.80;;;9.00;99.90;;;;;;5066286;28;20047;-90
2023/03/19 03:59:42;;;;;;;38.78;22.55;;;9.00;99.90;;;;;;5073864;28;20044;-90
2023/03/19 04:02:11;;;;;;;38.38;22.15;;;9.20;99.90;;;;;;5053774;28;20052;-91
2023/03/19 04:04:37;;;;;;;39.70;22.65;;;9.20;99.90;;;;;;5055646;28;20135;-91
2023/03/19 04:07:02;;;;;;;34.63;20.95;;;9.20;99.90;;;;;;5085017;28;20131;-90
2023/03/19 04:09:28;;;;;;;38.35;22.05;;;9.20;99.90;;;;;;5051336;28;20044;-89
2023/03/19 04:11:56;;;;;;;39.67;22.13;;;9.30;99.90;;;;;;5071753;28;20040;-91
2023/03/19 04:14:27;;;;;;;36.00;21.88;;;9.30;99.90;;;;;;5056127;28;20044;-90
2023/03/19 04:16:59;;;;;;;39.40;21.38;;;9.30;99.90;;;;;;5074894;28;20112;-90
2023/03/19 04:19:24;;;;;;;35.47;19.95;;;9.30;99.90;;;;;;5076770;28;20050;-92
2023/03/19 04:21:50;;;;;;;33.75;20.23;;;9.30;99.90;;;;;;5076682;28;20032;-93
2023/03/19 04:24:16;;;;;;;31.63;19.30;;;9.30;99.90;;;;;;5069209;28;20533;-91
2023/03/19 04:26:59;;;;;;;32.20;18.95;;;9.30;99.90;;;;;;5059226;28;20040;-93
2023/03/19 04:29:28;;;;;;;32.60;17.45;;;9.30;99.90;;;;;;5066065;28;20103;-92
2023/03/19 04:31:59;;;;;;;28.63;17.73;;;9.30;99.90;;;;;;5048076;28;20600;-91
2023/03/19 04:34:27;;;;;;;29.58;17.67;;;9.30;99.90;;;;;;5057452;28;20063;-92
2023/03/19 04:36:56;;;;;;;30.08;16.48;;;9.40;99.90;;;;;;5090959;28;20051;-91
2023/03/19 04:39:22;;;;;;;25.52;16.00;;;9.40;99.90;;;;;;5056471;28;20067;-91
2023/03/19 04:41:52;;;;;;;24.98;16.15;;;9.40;99.90;;;;;;5083065;28;20040;-92
2023/03/19 04:44:18;;;;;;;26.33;15.07;;;9.30;99.90;;;;;;5074505;28;20056;-90
2023/03/19 04:46:45;;;;;;;23.88;15.23;;;9.30;99.90;;;;;;5056902;28;20101;-94
2023/03/19 04:49:13;;;;;;;24.80;14.93;;;9.30;99.90;;;;;;5078618;28;20044;-94
2023/03/19 04:51:41;;;;;;;22.08;13.05;;;9.20;99.90;;;;;;5057877;28;20052;-93
2023/03/19 04:54:07;;;;;;;19.05;12.05;;;9.20;99.90;;;;;;5074770;28;20118;-93
2023/03/19 04:56:33;;;;;;;20.98;13.32;;;9.10;99.90;;;;;;5065197;28;20056;-92
2023/03/19 04:58:59;;;;;;;21.13;13.27;;;9.10;99.90;;;;;;5064188;28;20488;-90
2023/03/19 05:01:30;;;;;;;25.08;13.43;;;9.00;99.90;;;;;;5059736;28;20040;-89
2023/03/19 05:04:01;;;;;;;27.10;14.35;;;8.90;99.90;;;;;;5089737;28;20044;-89
2023/03/19 05:06:32;;;;;;;23.90;13.63;;;8.80;99.90;;;;;;5065375;28;20048;-89
2023/03/19 05:08:58;;;;;;;24.17;13.50;;;8.70;99.90;;;;;;5057751;28;20044;-90
2023/03/19 05:11:24;;;;;;;26.27;13.40;;;8.70;99.90;;;;;;5053181;28;20097;-89
2023/03/19 05:13:50;;;;;;;25.17;13.77;;;8.60;99.90;;;;;;5071971;28;20251;-88
2023/03/19 05:16:16;;;;;;;24.30;13.90;;;8.50;99.90;;;;;;5060039;28;20282;-87
2023/03/19 05:18:42;;;;;;;25.67;14.00;;;8.50;99.90;;;;;;5072165;28;20047;-86
2023/03/19 05:21:11;;;;;;;26.60;13.65;;;8.40;99.90;;;;;;5060415;28;20055;-86
2023/03/19 05:23:40;;;;;;;24.58;13.77;;;8.40;99.90;;;;;;5070245;28;20101;-88
2023/03/19 05:26:07;;;;;;;26.23;13.73;;;8.30;99.90;;;;;;5054562;28;20059;-87
2023/03/19 05:28:36;;;;;;;26.88;13.95;;;8.30;99.90;;;;;;5044163;28;20423;-85
2023/03/19 05:31:04;;;;;;;22.23;13.05;;;8.20;99.90;;;;;;5056877;28;20487;-88
2023/03/19 05:33:31;;;;;;;22.67;13.70;;;8.20;99.90;;;;;;5069832;28;20053;-87
2023/03/19 05:35:59;;;;;;;24.52;13.88;;;8.20;99.90;;;;;;5069640;28;20051;-87
2023/03/19 05:38:25;;;;;;;26.25;13.32;;;8.20;99.90;;;;;;5069311;28;20040;-87
2023/03/19 05:40:51;;;;;;;22.45;12.77;;;8.00;99.90;;;;;;5059165;28;20063;-88
2023/03/19 05:43:17;;;;;;;24.83;13.38;;;7.90;99.90;;;;;;5074570;28;20052;-87
2023/03/19 05:45:48;;;;;;;19.75;12.10;;;7.90;99.90;;;;;;5057225;28;20695;-87
2023/03/19 05:48:14;;;;;;;26.13;13.45;;;7.80;99.90;;;;;;5066763;28;20044;-87
2023/03/19 05:50:41;;;;;;;23.65;13.05;;;7.70;99.90;;;;;;5078778;28;20039;-87
2023/03/19 05:53:07;;;;;;;22.80;12.45;;;7.70;99.90;;;;;;5076636;28;20059;-88
2023/03/19 05:55:38;;;;;;;25.38;12.30;;;7.60;99.90;;;;;;5042624;28;20040;-87
2023/03/19 05:58:04;;;;;;;23.85;12.05;;;7.50;99.90;;;;;;5058998;28;20071;-88
2023/03/19 06:00:30;;;;;;;25.13;13.10;;;7.50;99.90;;;;;;5066288;28;20401;-87
2023/03/19 06:02:56;;;;;;;22.70;11.63;;;7.50;99.90;;;;;;5064191;28;20044;-86
2023/03/19 06:05:24;;;;;;;21.63;11.68;;;7.40;99.90;;;;;;5060910;28;20040;-87
2023/03/19 06:07:50;;;;;;;21.67;12.15;;;7.40;99.90;;;;;;5060169;28;20047;-87
2023/03/19 06:10:16;;;;;;;21.00;11.70;;;7.30;99.90;;;;;;5072637;28;20052;-87
2023/03/19 06:12:42;;;;;;;25.02;11.85;;;7.40;99.90;;;;;;5061015;28;20496;-89
2023/03/19 06:15:08;;;;;;;23.52;11.93;;;7.30;99.90;;;;;;5071762;28;20055;-88
2023/03/19 06:17:43;;;;;;;20.35;11.20;;;7.40;99.90;;;;;;5049635;28;20040;-87
2023/03/19 06:20:10;;;;;;;21.35;11.30;;;7.40;99.90;;;;;;5048179;28;20127;-88
2023/03/19 06:22:36;;;;;;;21.52;11.63;;;7.40;99.90;;;;;;5043133;28;20075;-87
2023/03/19 06:25:02;;;;;;;24.83;11.98;;;7.50;99.90;;;;;;5072453;28;20484;-88
2023/03/19 06:27:28;;;;;;;23.85;11.95;;;7.50;99.90;;;;;;5056736;28;20054;-87
2023/03/19 06:29:53;;;;;;;24.25;11.93;;;7.50;99.90;;;;;;5076690;28;20063;-87
2023/03/19 06:32:21;;;;;;;22.30;11.63;;;7.40;99.90;;;;;;5050251;28;20040;-86
2023/03/19 06:34:47;;;;;;;22.33;12.57;;;7.50;99.90;;;;;;5082301;28;20039;-88
2023/03/19 06:37:13;;;;;;;24.00;12.57;;;7.50;99.90;;;;;;5065829;28;20496;-86
2023/03/19 06:39:38;;;;;;;21.55;12.27;;;7.60;99.90;;;;;;5074371;28;20058;-87
2023/03/19 06:42:07;;;;;;;25.85;12.68;;;7.60;99.90;;;;;;5069774;28;20051;-89
2023/03/19 06:44:34;;;;;;;23.50;13.05;;;7.80;99.90;;;;;;5052102;28;20055;-89
2023/03/19 06:47:00;;;;;;;27.15;13.77;;;7.90;99.90;;;;;;5056882;28;20051;-87
2023/03/19 06:49:26;;;;;;;23.30;13.10;;;7.90;99.90;;;;;;5057004;28;20106;-88
2023/03/19 06:51:54;;;;;;;27.58;13.38;;;8.00;99.90;;;;;;5042788;28;20086;-90
2023/03/19 06:54:29;;;;;;;30.10;13.50;;;8.10;99.90;;;;;;5057202;28;20611;-93
2023/03/19 06:57:00;;;;;;;23.98;13.10;;;8.10;99.90;;;;;;5075048;28;20127;-90
2023/03/19 06:59:35;;;;;;;27.35;13.70;;;8.10;99.90;;;;;;5058093;28;20050;-89
2023/03/19 07:02:04;;;;;;;26.67;13.98;;;8.20;99.90;;;;;;5053474;28;20121;-87
2023/03/19 07:04:35;;;;;;;30.60;14.60;;;8.20;99.90;;;;;;5052977;28;20863;-89
2023/03/19 07:07:07;;;;;;;26.35;14.45;;;8.30;99.90;;;;;;5071578;28;20051;-91
2023/03/19 07:09:32;;;;;;;28.27;14.00;;;8.30;99.90;;;;;;5059426;28;20048;-88
2023/03/19 07:11:58;;;;;;;25.50;14.60;;;8.40;99.90;;;;;;5057881;28;20378;-88
2023/03/19 07:14:26;;;;;;;32.13;15.63;;;8.40;99.90;;;;;;5062770;28;20078;-89
2023/03/19 07:16:54;;;;;;;30.75;16.35;;;8.50;99.90;;;;;;5045269;28;20044;-90
2023/03/19 07:19:20;;;;;;;35.97;16.42;;;8.40;99.90;;;;;;5088570;28;20075;-88
2023/03/19 07:21:48;;;;;;;31.27;16.90;;;8.60;99.90;;;;;;5056211;28;20090;-89
2023/03/19 07:24:16;;;;;;;31.48;16.60;;;8.60;99.90;;;;;;5064695;28;20050;-88
2023/03/19 07:26:45;;;;;;;32.03;17.77;;;8.70;99.90;;;;;;5057374;28;20051;-88
2023/03/19 07:29:11;;;;;;;30.65;16.08;;;8.70;99.90;;;;;;5083933;28;20059;-88
2023/03/19 07:31:37;;;;;;;31.45;16.05;;;8.80;99.90;;;;;;5063692;28;20041;-88
2023/03/19 07:34:03;;;;;;;31.65;16.85;;;8.90;99.90;;;;;;5061006;28;20063;-89
2023/03/19 07:36:31;;;;;;;30.90;15.45;;;8.90;99.90;;;;;;5071243;28;20044;-86
2023/03/19 07:38:56;;;;;;;29.73;15.63;;;8.90;99.90;;;;;;5054879;28;20548;-89
2023/03/19 07:41:30;;;;;;;32.08;17.92;;;9.00;99.90;;;;;;5058871;28;20158;-88
2023/03/19 07:43:55;;;;;;;31.20;16.70;;;9.00;99.90;;;;;;5071087;28;20052;-89
2023/03/19 07:46:21;;;;;;;32.08;16.52;;;9.00;99.90;;;;;;5059404;28;20070;-88
2023/03/19 07:48:47;;;;;;;31.25;17.05;;;9.10;99.90;;;;;;5054898;28;20127;-88
2023/03/19 07:51:13;;;;;;;32.88;17.05;;;9.10;99.90;;;;;;5062002;28;20043;-87
2023/03/19 07:53:39;;;;;;;27.33;15.52;;;9.20;99.90;;;;;;5043116;28;20075;-89
2023/03/19 07:56:05;;;;;;;28.63;15.70;;;9.20;99.90;;;;;;5046175;28;20571;-89
2023/03/19 07:58:31;;;;;;;27.20;15.73;;;9.20;99.90;;;;;;5073831;28;20104;-89
2023/03/19 08:00:56;;;;;;;26.40;15.48;;;9.30;99.90;;;;;;5041057;28;20044;-88
2023/03/19 08:03:22;;;;;;;25.42;15.80;;;9.40;99.90;;;;;;5057477;28;20131;-88
2023/03/19 08:05:48;;;;;;;23.23;14.35;;;9.40;99.90;;;;;;5045531;28;20044;-87
2023/03/19 08:08:15;;;;;;;23.52;15.30;;;9.40;99.90;;;;;;5055670;28;20040;-88
2023/03/19 08:10:40;;;;;;;23.35;15.00;;;9.50;99.90;;;;;;5056038;28;20054;-87
2023/03/19 08:13:06;;;;;;;23.10;14.82;;;9.60;99.90;;;;;;5054115;28;20041;-88
2023/03/19 08:15:32;;;;;;;23.42;15.05;;;9.60;99.90;;;;;;5045623;28;20164;-88
2023/03/19 08:18:10;;;;;;;23.75;15.13;;;9.70;99.90;;;;;;5036902;28;20477;-89
2023/03/19 08:20:43;;;;;;;26.63;15.45;;;9.70;99.90;;;;;;5040264;28;20062;-89
2023/03/19 08:23:10;;;;;;;24.38;14.73;;;9.80;99.90;;;;;;5058127;28;20051;-90
2023/03/19 08:25:37;;;;;;;24.73;14.65;;;10.00;99.90;;;;;;5040041;28;20048;-89
2023/03/19 08:28:02;;;;;;;24.45;15.63;;;10.20;99.90;;;;;;5042310;28;20044;-90
2023/03/19 08:30:28;;;;;;;26.33;15.23;;;10.40;99.90;;;;;;5058240;28;20047;-89
2023/03/19 08:32:54;;;;;;;22.95;15.23;;;10.60;99.90;;;;;;5061832;28;20416;-89
2023/03/19 08:35:22;;;;;;;23.73;14.75;;;10.90;99.90;;;;;;5061982;28;20063;-89
2023/03/19 08:37:50;;;;;;;22.13;15.20;;;10.90;99.90;;;;;;5077100;28;20744;-92
2023/03/19 08:40:20;;;;;;;17.65;12.30;;;10.90;99.90;;;;;;5025033;28;20566;-90
2023/03/19 08:42:46;;;;;;;18.13;13.00;;;10.90;99.90;;;;;;5055266;28;20124;-88
2023/03/19 08:45:15;;;;;;;17.52;11.90;;;10.80;99.90;;;;;;5064407;28;20068;-91
2023/03/19 08:47:45;;;;;;;20.92;13.55;;;10.90;99.90;;;;;;5043311;28;20071;-92
2023/03/19 08:50:13;;;;;;;16.15;11.90;;;10.80;99.90;;;;;;5038542;28;20070;-89
2023/03/19 08:52:42;;;;;;;15.98;11.98;;;11.10;99.90;;;;;;5046144;28;20044;-90
2023/03/19 08:55:20;;;;;;;20.58;12.55;;;11.20;99.90;;;;;;5044327;28;20044;-91
2023/03/19 08:57:46;;;;;;;17.63;11.45;;;11.30;99.90;;;;;;5031748;28;20040;-93
2023/03/19 09:00:13;;;;;;;17.35;11.57;;;11.30;98.20;;;;;;5041087;28;20055;-86
2023/03/19 09:02:39;;;;;;;15.25;10.45;;;11.20;99.50;;;;;;5029146;28;20049;-86
2023/03/19 09:05:12;;;;;;;17.90;11.98;;;11.30;99.90;;;;;;5041443;28;20047;-87
2023/03/19 09:07:38;;;;;;;15.85;10.95;;;11.10;54.90;;;;;;5047796;28;20045;-85
2023/03/19 09:10:04;;;;;;;14.43;10.73;;;11.10;77.60;;;;;;5056944;28;20059;-85
2023/03/19 09:12:30;;;;;;;18.45;11.82;;;11.30;95.30;;;;;;5049606;28;20041;-85
2023/03/19 09:14:55;;;;;;;13.55;10.45;;;11.40;90.20;;;;;;5040425;28;20045;-88
2023/03/19 09:17:21;;;;;;;13.45;9.73;;;11.50;59.10;;;;;;5042191;28;20048;-88
2023/03/19 09:19:47;;;;;;;13.70;10.13;;;11.40;26.90;;;;;;5038217;28;20147;-86
2023/03/19 09:22:13;;;;;;;14.75;8.48;;;11.30;32.10;;;;;;5009028;28;20581;-87
2023/03/19 09:24:38;;;;;;;12.75;9.88;;;11.30;43.40;;;;;;5039720;28;20110;-90
2023/03/19 09:27:04;;;;;;;12.63;9.65;;;11.50;65.90;;;;;;5060309;28;20044;-90
2023/03/19 09:29:33;;;;;;;14.18;8.95;;;11.60;1.00;;;;;;5041880;28;20044;-92
2023/03/19 09:31:59;;;;;;;12.95;9.02;;;11.80;47.30;;;;;;5022256;28;20053;-91
2023/03/19 09:34:25;;;;;;;12.68;9.75;;;11.80;1.00;;;;;;5040466;28;20037;-88
2023/03/19 09:36:51;;;;;;;11.52;9.25;;;11.80;1.00;;;;;;5047144;28;20113;-87
2023/03/19 09:39:16;;;;;;;10.88;8.15;;;12.00;1.00;;;;;;5060974;28;20129;-88
2023/03/19 09:41:58;;;;;;;11.70;9.05;;;12.20;1.00;;;;;;5036532;28;20033;-91
2023/03/19 09:44:36;;;;;;;11.35;8.23;;;12.50;1.00;;;;;;5059314;28;20057;-89
2023/03/19 09:47:08;;;;;;;9.88;8.13;;;13.00;1.00;;;;;;5056359;28;21457;-89
2023/03/19 09:49:43;;;;;;;10.80;7.80;;;13.20;1.00;;;;;;5057231;28;20098;-86
2023/03/19 09:52:18;;;;;;;8.98;7.43;;;13.30;1.00;;;;;;5046684;28;20068;-88
2023/03/19 09:54:48;;;;;;;11.07;7.78;;;13.40;1.00;;;;;;5059285;28;20131;-89
2023/03/19 09:57:16;;;;;;;10.77;8.00;;;13.40;99.90;;;;;;5059026;28;20147;-88
2023/03/19 09:59:42;;;;;;;11.45;7.72;;;13.30;99.90;;;;;;5031572;28;20084;-86
2023/03/19 10:02:35;;;;;;;11.13;8.43;;;13.40;99.90;;;;;;5051155;28;20208;-89
2023/03/19 10:05:07;;;;;;;9.60;7.70;;;13.30;99.90;;;;;;5048072;28;20055;-89
2023/03/19 10:07:55;;;;;;;11.30;7.82;;;13.20;99.90;;;;;;5033882;28;20064;-89
2023/03/19 10:10:28;;;;;;;10.77;7.93;;;13.30;99.90;;;;;;5050582;28;20124;-89
2023/03/19 10:12:59;;;;;;;9.02;7.38;;;13.20;99.90;;;;;;5052532;28;20052;-90
2023/03/19 10:15:33;;;;;;;10.85;7.63;;;13.30;99.90;;;;;;5049930;28;20094;-91
2023/03/19 10:18:27;;;;;;;9.73;8.43;;;13.30;99.90;;;;;;5031767;28;20148;-89
2023/03/19 10:20:58;;;;;;;12.02;8.25;;;13.40;99.90;;;;;;5047022;28;20072;-91
2023/03/19 10:23:47;;;;;;;10.30;8.25;;;13.50;99.90;;;;;;5066833;28;20544;-90
2023/03/19 10:26:18;;;;;;;9.77;7.93;;;13.40;99.90;;;;;;5036854;28;20041;-88
2023/03/19 10:28:56;;;;;;;10.10;7.75;;;13.30;99.90;;;;;;5039256;28;20572;-89
2023/03/19 10:31:24;;;;;;;10.00;7.43;;;13.30;99.90;;;;;;5053366;28;20497;-89
2023/03/19 10:33:53;;;;;;;9.98;7.70;;;13.30;99.90;;;;;;5041152;28;20103;-87
2023/03/19 10:36:21;;;;;;;11.75;8.02;;;13.30;99.90;;;;;;5063137;28;20041;-88
2023/03/19 10:38:46;;;;;;;11.82;7.72;;;13.30;99.90;;;;;;5042982;28;20090;-90
2023/03/19 10:41:59;;;;;;;11.00;8.38;;;13.30;99.90;;;;;;5044297;28;21036;-89
2023/03/19 10:44:33;;;;;;;10.02;8.00;;;13.40;99.90;;;;;;5043331;28;20060;-89
2023/03/19 10:47:09;;;;;;;13.18;8.55;;;13.50;99.90;;;;;;5081380;28;20056;-89
2023/03/19 10:49:35;;;;;;;13.02;8.25;;;13.80;99.90;;;;;;5042717;28;20140;-87
2023/03/19 10:52:01;;;;;;;11.05;8.05;;;13.90;99.90;;;;;;5045581;28;20075;-91
2023/03/19 10:54:29;;;;;;;10.50;8.25;;;14.50;99.90;;;;;;5060446;28;20080;-90
2023/03/19 10:56:57;;;;;;;11.18;8.43;;;14.90;99.90;;;;;;5048829;28;20576;-90
2023/03/19 10:59:29;;;;;;;12.63;8.68;;;15.20;99.90;;;;;;5065536;28;20123;-88
2023/03/19 11:02:15;;;;;;;10.45;8.50;;;15.40;99.90;;;;;;5053159;28;20082;-89
2023/03/19 11:04:40;;;;;;;13.27;9.35;;;15.00;99.90;;;;;;5054618;28;20628;-91
2023/03/19 11:07:34;;;;;;;12.75;9.77;;;14.80;99.90;;;;;;5018003;28;20053;-90
2023/03/19 11:10:00;;;;;;;12.27;9.57;;;14.40;99.90;;;;;;5039845;28;20386;-88
2023/03/19 11:12:34;;;;;;;12.93;10.07;;;14.20;99.90;;;;;;5064060;28;20052;-86
2023/03/19 11:15:02;;;;;;;12.13;9.32;;;15.00;99.90;;;;;;5060483;28;20099;-90
2023/03/19 11:17:56;;;;;;;10.23;9.05;;;15.70;99.90;;;;;;5053966;28;20041;-90
2023/03/19 11:20:29;;;;;;;10.63;8.80;;;16.40;99.90;;;;;;5036179;28;20071;-88
2023/03/19 11:23:01;;;;;;;11.73;9.10;;;17.50;99.90;;;;;;5047129;28;20036;-88
2023/03/19 11:25:37;;;;;;;10.88;9.30;;;17.40;99.90;;;;;;5052468;28;20102;-90
2023/03/19 11:28:16;;;;;;;10.30;9.18;;;16.80;99.90;;;;;;5063783;28;20048;-90
2023/03/19 11:31:12;;;;;;;12.57;10.30;;;16.50;99.90;;;;;;5070452;28;20048;-90
2023/03/19 11:33:57;;;;;;;12.63;10.05;;;16.20;99.90;;;;;;5048054;28;20048;-90
2023/03/19 11:36:26;;;;;;;14.25;11.65;;;16.10;99.90;;;;;;5051416;28;20101;-90
2023/03/19 11:39:14;;;;;;;13.43;10.68;;;15.70;99.90;;;;;;5050000;28;20055;-90
2023/03/19 11:42:09;;;;;;;13.82;10.43;;;15.30;99.90;;;;;;5051729;28;20052;-90
2023/03/19 11:44:43;;;;;;;13.02;11.13;;;15.70;99.90;;;;;;5066897;28;20485;-90
2023/03/19 11:47:13;;;;;;;13.18;10.15;;;15.80;99.90;;;;;;5051316;28;20083;-88
2023/03/19 11:50:00;;;;;;;13.25;11.30;;;15.50;99.90;;;;;;5068903;28;20128;-89
2023/03/19 11:52:53;;;;;;;13.73;11.73;;;15.10;99.90;;;;;;5065585;28;20041;-90
2023/03/19 11:55:21;;;;;;;14.32;12.05;;;14.90;99.90;;;;;;5068199;28;20458;-90
2023/03/19 11:58:15;;;;;;;14.77;11.70;;;14.90;99.90;;;;;;5064486;28;20112;-87
2023/03/19 12:00:51;;;;;;;14.40;11.35;;;15.00;99.90;;;;;;5068610;28;20048;-87
2023/03/19 12:03:16;;;;;;;;;;;15.10;99.90;;;;;;5075722;28;20056;-87
2023/03/19 12:06:39;;;;;;;13.53;11.60;;;14.70;99.90;;;;;;5052790;28;19920;-89
2023/03/19 12:09:22;;;;;;;15.88;10.57;;;14.60;99.90;;;;;;4974016;28;20221;-89
2023/03/19 12:11:57;;;;;;;13.98;10.85;;;14.80;99.90;;;;;;4984947;28;20455;-89
2023/03/19 12:14:53;;;;;;;14.30;11.48;;;15.40;99.90;;;;;;5044315;28;20069;-89
2023/03/19 12:17:37;;;;;;;11.53;9.40;;;15.70;99.90;;;;;;5056828;28;20079;-90
2023/03/19 12:20:13;;;;;;;15.88;10.20;;;16.20;99.90;;;;;;5054597;28;20350;-88
2023/03/19 12:22:54;;;;;;;;;;;17.20;99.90;;;;;;5053967;28;20047;-90
2023/03/19 12:25:27;;;;;;;14.05;9.63;;;16.80;99.90;;;;;;5061036;28;19966;-90
2023/03/19 12:28:07;;;;;;;15.52;11.13;;;16.10;99.90;;;;;;5072630;28;20062;-91
2023/03/19 12:30:36;;;;;;;13.93;10.88;;;15.60;99.90;;;;;;5060367;28;20151;-91
2023/03/19 12:33:35;;;;;;;15.38;10.93;;;15.30;99.90;;;;;;5062937;28;20551;-89
2023/03/19 12:36:03;;;;;;;14.65;11.15;;;15.60;99.90;;;;;;5057091;28;20072;-91
2023/03/19 12:38:35;;;;;;;16.17;11.35;;;15.60;99.90;;;;;;5042537;28;20141;-91
2023/03/19 12:41:17;;;;;;;15.82;11.98;;;15.50;99.90;;;;;;5039249;28;20053;-88
2023/03/19 12:44:01;;;;;;;12.55;10.13;;;15.40;99.90;;;;;;5054581;28;20048;-90
2023/03/19 12:46:36;;;;;;;12.65;10.32;;;15.40;99.90;;;;;;5067000;28;20075;-90
2023/03/19 12:49:02;;;;;;;14.90;10.55;;;15.20;99.90;;;;;;5049730;28;20052;-88
2023/03/19 12:51:34;;;;;;;13.63;10.40;;;15.00;99.90;;;;;;5069871;28;20547;-88
2023/03/19 12:54:12;;;;;;;12.00;9.60;;;15.00;99.90;;;;;;5040126;28;20041;-90
2023/03/19 12:56:56;;;;;;;13.45;10.63;;;14.90;99.90;;;;;;5057508;28;20118;-90